x

Central Dixon Entrance Buoy (46145) Wave Buoy

11:00pm - Sat 28th Mar 2015 All times are PDT. -7 hours from GMT.

  • Sig Wave height 4.6ft
  • Peak Period 11s
  • Wind
    13mph, 16mph gusts
  • Sea Temp 47°f
  • Air Temp 48°f
  • Sea Pressure 1006.6mb
  • Central Dixon Entrance Buoy
  • Central Dixon Entrance Buoy

More Historic Weather Station data

Upgrade to MSW Pro to gain access to the past 30 days of data for over 8000 Wavebouys and Weather Stations around the globe.

Join Pro

Comparision Forecast

View Surf forecast
   
Sat 03/28 11:00pm 4.5ft 11s 13 16 mph 1006.6mb 47f 48f
10:00pm 5ft 11s 11 13 mph 1006.5mb 47f 48f
9:00pm 6ft 12s 9 11 mph 1005.8mb 48f 49f
8:00pm 5.5ft 12s 11 13 mph 1005mb 48f 49f
7:00pm 6ft 11s 7 9 mph 1004.4mb 48f 50f
6:00pm 6.5ft 11s 11 16 mph 1003.4mb 48f 49f
5:00pm 7ft 12s 18 20 mph 1002.9mb 47f 49f
4:00pm 8ft 7s 20 25 mph 1002mb 47f 48f
3:00pm 9ft 7s 27 31 mph 1002.5mb 47f 48f
2:00pm 10ft 7s 29 36 mph 1002.6mb 47f 48f
1:00pm 9.5ft 6s 36 45 mph 1002.7mb 47f 47f
12:00pm 8.5ft 5s 36 47 mph 1003.4mb 47f 47f
11:00am 6.5ft 5s 34 43 mph 1004.3mb 47f 47f
10:00am 6ft 11s 29 38 mph 1005.3mb 47f 47f
9:00am 5ft 10s 22 29 mph 1006.6mb 47f 47f
8:00am 5ft 10s 25 31 mph 1006.8mb 47f 47f
7:00am 5ft 10s 22 29 mph 1007.8mb 47f 47f
6:00am 4.5ft 10s 20 22 mph 1008.9mb 47f 47f
5:00am 4.5ft 10s 16 22 mph 1009.7mb 47f 46f
4:00am 5ft 10s 13 16 mph 1010.2mb 47f 46f
3:00am 5.5ft 10s 11 13 mph 1010.9mb 47f 46f
2:00am 5ft 10s 7 9 mph 1011.2mb 47f 46f
1:00am 5ft 11s 4 7 mph 1011.3mb 47f 46f
12:00am 5ft 11s 4 7 mph 1011.2mb 47f 46f
Fri 03/27 11:00pm 5.5ft 11s 4
mph
1011.5mb 47f 46f
10:00pm 5.5ft 11s 7 9 mph 1011.4mb 48f 46f
9:00pm 6ft 11s 9
mph
1011.5mb 48f 47f
8:00pm 5.5ft 12s 9 11 mph 1011.3mb 48f 47f
7:00pm 5ft 10s 7 9 mph 1011.3mb 48f 47f
6:00pm 5ft 11s 7 9 mph 1011.7mb 49f 47f
5:00pm 4.5ft 11s 7 9 mph 1012mb 49f 47f
4:00pm 4.5ft 11s 2
mph
1012.6mb 50f 48f
3:00pm 4.5ft 10s 2 4 mph 1012.8mb 49f 47f
2:00pm 4.5ft 11s 4 7 mph 1012.9mb 48f 47f
1:00pm 5.5ft 10s 4 7 mph 1013.3mb 48f 46f
12:00pm 6ft 11s 4 7 mph 1013.5mb 47f 46f
11:00am 6ft 12s 7 9 mph 1013.5mb 47f 46f
10:00am 6ft 12s 7 9 mph 1013.6mb 47f 46f
9:00am 7ft 12s 4 7 mph 1013.4mb 47f 47f
8:00am 6.5ft 12s 4 7 mph 1013.5mb 47f 47f
7:00am 5.5ft 12s  -  2 mph 1013.9mb 47f 47f
6:00am 5ft 12s 4 7 mph 1014mb 47f 46f
5:00am 5.5ft 12s  -  4 mph 1014.2mb 47f 46f
4:00am 5ft 12s  -  mph 1014.6mb 47f 47f
3:00am 5ft 12s 2 4 mph 1014.8mb 47f 47f
2:00am 4ft 12s 2 4 mph 1014.8mb 47f 47f
1:00am 5ft 12s 4 7 mph 1014.8mb 47f 47f
12:00am 6ft 12s 4 7 mph 1015mb 47f 47f
Thu 03/26 11:00pm 6ft 12s 4 7 mph 1014.9mb 47f 47f
10:00pm 6ft 12s 2 4 mph 1014.8mb 47f 47f
9:00pm 5ft 12s 2 4 mph 1014.7mb 47f 47f
8:00pm 4.5ft 13s 7 9 mph 1014.6mb 47f 47f
7:00pm 4.5ft 13s 2 4 mph 1014.9mb 47f 47f
6:00pm 3.5ft 12s 4 7 mph 1014.7mb 47f 47f
5:00pm 3.5ft 11s 4 7 mph 1015mb 47f 47f
4:00pm 4ft 10s 2 4 mph 1015.4mb 47f 47f
3:00pm 3.5ft 10s 4
mph
1015.7mb 47f 47f
2:00pm 3.5ft 10s 2 4 mph 1015.6mb 47f 47f
1:00pm 3.5ft 11s 7 9 mph 1015.4mb 47f 47f
12:00pm 3.5ft 11s 9 11 mph 1015.1mb 47f 48f
11:00am 3.5ft 12s 11 16 mph 1014.2mb 47f 48f
10:00am 3.5ft 12s 16 18 mph 1013.4mb 47f 48f
9:00am 3ft 12s 13 16 mph 1012.7mb 47f 48f
8:00am 2.5ft 12s 11 16 mph 1012.3mb 47f 48f
7:00am 2ft 13s 9 11 mph 1011.7mb 47f 47f
6:00am 2ft 13s 9
mph
1011.4mb 47f 48f
5:00am 2ft 6s 9 11 mph 1011.1mb 47f 48f
4:00am 2ft 5s 11
mph
1011.1mb 47f 48f
3:00am 2ft 5s 9
mph
1010.8mb 47f 49f
2:00am 2.5ft 10s 9
mph
1010.7mb 47f 48f
1:00am 2.5ft 5s 7
mph
1010.1mb 47f 48f
12:00am 2.5ft 5s 7
mph
1010mb 47f 49f
Wed 03/25 11:00pm 3ft 4s 13 16 mph 1009.4mb 47f 50f
10:00pm 3.5ft 6s 7 11 mph 1009mb 47f 50f
9:00pm 3.5ft 10s 2 4 mph 1008mb 47f 49f
8:00pm 4ft 5s 2 4 mph 1007.3mb 47f 49f
7:00pm 4.5ft 5s 4 7 mph 1006.6mb 48f 49f
6:00pm 3.5ft 5s 13 16 mph 1006.4mb 48f 49f
5:00pm 3ft 5s 13 16 mph 1006.2mb 48f 49f
4:00pm 3ft 5s 18 20 mph 1005.8mb 48f 49f
3:00pm 3.5ft 5s 18 22 mph 1006mb 48f 49f
2:00pm 3.5ft 6s 18 20 mph 1006.3mb 48f 49f
1:00pm 4ft 5s 13 16 mph 1006.3mb 48f 49f
12:00pm 5ft 5s 13 16 mph 1005.6mb 48f 48f
11:00am 5.5ft 5s 18 20 mph 1005.1mb 47f 48f
10:00am 6ft 5s 22 25 mph 1004.7mb 47f 47f
9:00am 6.5ft 5s 27 31 mph 1004.7mb 47f 46f
8:00am 6ft 5s 27 36 mph 1004.4mb 47f 45f